createdAt,value
2019-03-24T00:00:16.794Z,6.75
2019-03-24T00:01:16.739Z,6.77
2019-03-24T00:02:16.689Z,6.75
2019-03-24T00:03:16.630Z,6.71
2019-03-24T00:04:16.594Z,6.65
2019-03-24T00:05:16.519Z,6.70
2019-03-24T00:06:16.463Z,6.66
2019-03-24T00:07:16.408Z,6.71
2019-03-24T00:08:16.352Z,6.70
2019-03-24T00:09:16.321Z,6.65
2019-03-24T00:10:16.242Z,6.70
2019-03-24T00:11:16.188Z,6.67
2019-03-24T00:12:16.131Z,6.59
2019-03-24T00:13:16.076Z,6.57
2019-03-24T00:14:16.044Z,6.62
2019-03-24T00:15:25.733Z,6.57
2019-03-24T00:16:15.914Z,6.48
2019-03-24T00:17:15.863Z,6.49
2019-03-24T00:18:15.807Z,6.48
2019-03-24T00:19:15.767Z,6.55
2019-03-24T00:20:15.692Z,6.49
2019-03-24T00:21:15.636Z,6.52
2019-03-24T00:22:15.581Z,6.48
2019-03-24T00:23:15.525Z,6.53
2019-03-24T00:24:15.501Z,6.57
2019-03-24T00:25:15.417Z,6.53
2019-03-24T00:26:15.360Z,6.39
2019-03-24T00:27:15.304Z,6.45
2019-03-24T00:28:15.250Z,6.45
2019-03-24T00:29:15.217Z,6.42
2019-03-24T00:30:15.142Z,6.45
2019-03-24T00:31:15.079Z,6.42
2019-03-24T00:32:15.029Z,6.32
2019-03-24T00:33:14.971Z,6.41
2019-03-24T00:34:14.940Z,6.35
2019-03-24T00:35:14.860Z,6.34
2019-03-24T00:36:14.805Z,6.34
2019-03-24T00:37:14.752Z,6.30
2019-03-24T00:38:14.695Z,6.30
2019-03-24T00:39:14.664Z,6.32
2019-03-24T00:40:14.584Z,6.24
2019-03-24T00:41:14.529Z,6.37
2019-03-24T00:42:14.473Z,6.47
2019-03-24T00:43:14.422Z,6.35
2019-03-24T00:44:14.390Z,6.32
2019-03-24T00:45:14.308Z,6.37
2019-03-24T00:46:14.256Z,6.35
2019-03-24T00:47:14.197Z,6.29
2019-03-24T00:48:14.138Z,6.30
2019-03-24T00:49:14.110Z,6.22
2019-03-24T00:50:14.030Z,6.29
2019-03-24T00:51:13.975Z,6.32
2019-03-24T00:52:13.920Z,6.29
2019-03-24T00:53:13.863Z,6.19
2019-03-24T00:54:13.808Z,6.27
2019-03-24T00:55:13.777Z,6.19
2019-03-24T00:56:13.699Z,6.15
2019-03-24T00:57:13.643Z,6.16
2019-03-24T00:58:13.590Z,6.21
2019-03-24T00:59:13.534Z,6.18
2019-03-24T01:00:13.497Z,6.15
2019-03-24T01:01:13.423Z,6.15
2019-03-24T01:02:13.365Z,6.04
2019-03-24T01:03:13.310Z,6.05
2019-03-24T01:04:13.255Z,6.08
2019-03-24T01:05:13.223Z,6.03
2019-03-24T01:06:13.148Z,6.07
2019-03-24T01:07:13.085Z,6.04
2019-03-24T01:08:13.029Z,6.00
2019-03-24T01:09:12.978Z,6.00
2019-03-24T01:10:12.946Z,6.00
2019-03-24T01:11:12.859Z,6.04
2019-03-24T01:12:12.804Z,6.00
2019-03-24T01:13:12.757Z,6.05
2019-03-24T01:14:12.701Z,6.01
2019-03-24T01:15:12.665Z,6.05
2019-03-24T01:16:12.614Z,6.01
2019-03-24T01:17:12.531Z,6.03
2019-03-24T01:18:12.478Z,6.07
2019-03-24T01:19:12.424Z,6.11
2019-03-24T01:20:12.389Z,6.07
2019-03-24T01:21:12.309Z,6.10
2019-03-24T01:22:12.258Z,6.11
2019-03-24T01:23:12.198Z,6.13
2019-03-24T01:24:12.143Z,6.15
2019-03-24T01:25:12.111Z,6.11
2019-03-24T01:26:12.033Z,6.04
2019-03-24T01:27:11.984Z,6.01
2019-03-24T01:28:11.922Z,6.08
2019-03-24T01:29:11.866Z,6.08
2019-03-24T01:30:11.834Z,6.03
2019-03-24T01:31:11.755Z,6.01
2019-03-24T01:32:11.699Z,6.05
2019-03-24T01:33:11.647Z,6.10
2019-03-24T01:34:11.589Z,6.04
2019-03-24T01:35:11.557Z,6.01
2019-03-24T01:36:11.478Z,6.08
2019-03-24T01:37:11.424Z,6.08
2019-03-24T01:38:11.369Z,6.03
2019-03-24T01:39:11.318Z,6.08
2019-03-24T01:40:11.284Z,6.04
2019-03-24T01:41:11.199Z,6.04
2019-03-24T01:42:11.147Z,6.03
2019-03-24T01:43:11.090Z,6.03
2019-03-24T01:44:11.037Z,6.07
2019-03-24T01:45:11.001Z,6.10
2019-03-24T01:46:10.924Z,6.08
2019-03-24T01:47:10.869Z,6.05
2019-03-24T01:48:10.813Z,6.03
2019-03-24T01:49:10.759Z,6.03
2019-03-24T01:50:10.727Z,6.10
2019-03-24T01:51:10.643Z,6.04
2019-03-24T01:52:10.595Z,6.13
2019-03-24T01:53:10.537Z,6.22
2019-03-24T01:54:10.480Z,6.05
2019-03-24T01:55:10.449Z,6.15
2019-03-24T01:56:10.370Z,6.07
2019-03-24T01:57:10.315Z,6.13
2019-03-24T01:58:10.259Z,6.05
2019-03-24T01:59:10.204Z,6.01
2019-03-24T02:00:10.173Z,6.07
2019-03-24T02:01:10.094Z,6.01
2019-03-24T02:02:10.038Z,6.01
2019-03-24T02:03:09.999Z,6.03
2019-03-24T02:04:09.927Z,6.03
2019-03-24T02:05:09.894Z,6.05
2019-03-24T02:06:09.818Z,6.05
2019-03-24T02:07:09.767Z,6.00
2019-03-24T02:08:09.710Z,6.03
2019-03-24T02:09:09.651Z,5.94
2019-03-24T02:10:09.619Z,5.95
2019-03-24T02:11:09.543Z,6.03
2019-03-24T02:12:09.488Z,6.07
2019-03-24T02:13:09.450Z,6.04
2019-03-24T02:14:09.379Z,6.04
2019-03-24T02:15:09.338Z,6.00
2019-03-24T02:16:09.744Z,6.00
2019-03-24T02:17:09.199Z,5.94
2019-03-24T02:18:09.152Z,5.89
2019-03-24T02:19:09.097Z,5.89
2019-03-24T02:20:09.065Z,6.03
2019-03-24T02:21:08.986Z,6.00
2019-03-24T02:22:08.930Z,5.98
2019-03-24T02:23:08.870Z,5.92
2019-03-24T02:24:08.815Z,5.90
2019-03-24T02:25:08.786Z,5.89
2019-03-24T02:26:08.704Z,5.92
2019-03-24T02:27:08.650Z,5.86
2019-03-24T02:28:08.594Z,5.89
2019-03-24T02:29:08.544Z,5.87
2019-03-24T02:30:08.528Z,5.85
2019-03-24T02:31:08.432Z,5.87
2019-03-24T02:32:08.377Z,5.86
2019-03-24T02:33:08.317Z,5.83
2019-03-24T02:34:08.265Z,5.83
2019-03-24T02:35:08.231Z,5.86
2019-03-24T02:36:08.154Z,5.74
2019-03-24T02:37:08.096Z,5.74
2019-03-24T02:38:08.040Z,5.74
2019-03-24T02:39:07.989Z,5.76
2019-03-24T02:40:07.961Z,5.79
2019-03-24T02:41:07.874Z,5.77
2019-03-24T02:42:07.819Z,5.76
2019-03-24T02:43:07.771Z,5.64
2019-03-24T02:44:07.710Z,5.80
2019-03-24T02:45:07.680Z,5.76
2019-03-24T02:46:07.600Z,5.64
2019-03-24T02:47:07.541Z,5.68
2019-03-24T02:48:07.479Z,5.69
2019-03-24T02:49:07.431Z,5.62
2019-03-24T02:50:07.406Z,5.58
2019-03-24T02:51:07.319Z,5.57
2019-03-24T02:52:07.259Z,5.51
2019-03-24T02:53:07.206Z,5.46
2019-03-24T02:54:07.150Z,5.43
2019-03-24T02:55:07.114Z,5.44
2019-03-24T02:56:07.043Z,5.44
2019-03-24T02:57:06.983Z,5.44
2019-03-24T02:58:06.927Z,5.43
2019-03-24T02:59:06.872Z,5.43
2019-03-24T03:00:06.867Z,5.44
2019-03-24T03:01:06.761Z,5.43
2019-03-24T03:02:06.723Z,5.36
2019-03-24T03:03:06.647Z,5.39
2019-03-24T03:04:06.593Z,5.44
2019-03-24T03:05:06.584Z,5.31
2019-03-24T03:06:06.484Z,5.31
2019-03-24T03:07:06.426Z,5.35
2019-03-24T03:08:06.369Z,5.39
2019-03-24T03:09:06.321Z,5.29
2019-03-24T03:10:06.275Z,5.31
2019-03-24T03:11:06.228Z,5.29
2019-03-24T03:12:06.145Z,5.32
2019-03-24T03:13:06.097Z,5.29
2019-03-24T03:14:06.035Z,5.36
2019-03-24T03:15:05.979Z,5.36
2019-03-24T03:16:05.947Z,5.31
2019-03-24T03:17:05.871Z,5.28
2019-03-24T03:18:05.816Z,5.31
2019-03-24T03:19:05.766Z,5.33
2019-03-24T03:20:05.705Z,5.39
2019-03-24T03:21:05.667Z,5.31
2019-03-24T03:22:05.600Z,5.29
2019-03-24T03:23:05.532Z,5.32
2019-03-24T03:24:05.493Z,5.28
2019-03-24T03:25:05.419Z,5.29
2019-03-24T03:26:05.395Z,5.29
2019-03-24T03:27:05.328Z,5.21
2019-03-24T03:28:05.259Z,5.28
2019-03-24T03:29:05.264Z,5.24
2019-03-24T03:30:05.150Z,5.24
2019-03-24T03:31:05.116Z,5.26
2019-03-24T03:32:05.093Z,5.19
2019-03-24T03:33:04.979Z,5.17
2019-03-24T03:34:04.919Z,5.26
2019-03-24T03:35:04.865Z,5.24
2019-03-24T03:36:04.848Z,5.25
2019-03-24T03:37:04.750Z,5.26
2019-03-24T03:38:04.703Z,5.24
2019-03-24T03:39:04.644Z,5.26
2019-03-24T03:40:04.601Z,5.26
2019-03-24T03:41:04.551Z,5.24
2019-03-24T03:42:04.478Z,5.16
2019-03-24T03:43:04.418Z,5.17
2019-03-24T03:44:04.360Z,5.17
2019-03-24T03:45:04.306Z,5.14
2019-03-24T03:46:04.281Z,5.13
2019-03-24T03:47:04.194Z,5.16
2019-03-24T03:48:04.165Z,5.16
2019-03-24T03:49:04.095Z,5.17
2019-03-24T03:50:04.023Z,5.22
2019-03-24T03:51:04.012Z,5.16
2019-03-24T03:52:03.934Z,5.17
2019-03-24T03:53:03.863Z,5.22
2019-03-24T03:54:03.810Z,5.16
2019-03-24T03:55:03.750Z,5.11
2019-03-24T03:56:03.727Z,5.11
2019-03-24T03:57:03.656Z,5.11
2019-03-24T03:58:03.586Z,5.14
2019-03-24T03:59:03.526Z,5.14
2019-03-24T04:00:03.469Z,5.13
2019-03-24T04:01:03.433Z,5.06
2019-03-24T04:02:03.356Z,5.11
2019-03-24T04:03:03.323Z,5.03
2019-03-24T04:04:03.274Z,5.13
2019-03-24T04:05:03.190Z,5.06
2019-03-24T04:06:03.192Z,5.14
2019-03-24T04:07:03.088Z,5.10
2019-03-24T04:08:03.013Z,5.14
2019-03-24T04:09:02.969Z,5.07
2019-03-24T04:10:02.912Z,5.11
2019-03-24T04:11:02.874Z,5.07
2019-03-24T04:12:02.795Z,5.11
2019-03-24T04:13:02.754Z,5.04
2019-03-24T04:14:02.687Z,5.06
2019-03-24T04:15:02.654Z,5.04
2019-03-24T04:16:02.597Z,5.03
2019-03-24T04:17:07.501Z,5.01
2019-03-24T04:18:02.469Z,5.03
2019-03-24T04:19:02.425Z,5.01
2019-03-24T04:20:02.356Z,5.03
2019-03-24T04:21:02.318Z,5.03
2019-03-24T04:22:02.241Z,4.96
2019-03-24T04:23:02.185Z,4.96
2019-03-24T04:24:02.124Z,4.85
2019-03-24T04:25:02.072Z,5.03
2019-03-24T04:26:02.038Z,5.06
2019-03-24T04:27:01.959Z,4.96
2019-03-24T04:28:01.909Z,5.03
2019-03-24T04:29:01.848Z,4.95
2019-03-24T04:30:01.795Z,4.89
2019-03-24T04:31:01.761Z,4.95
2019-03-24T04:32:01.684Z,5.04
2019-03-24T04:33:01.658Z,4.99
2019-03-24T04:34:01.574Z,4.90
2019-03-24T04:35:01.552Z,4.96
2019-03-24T04:36:01.485Z,4.88
2019-03-24T04:37:01.400Z,4.88
2019-03-24T04:38:01.341Z,4.88
2019-03-24T04:39:01.305Z,4.93
2019-03-24T04:40:01.231Z,4.92
2019-03-24T04:41:01.198Z,4.96
2019-03-24T04:42:01.119Z,4.93
2019-03-24T04:43:01.138Z,4.86
2019-03-24T04:44:01.008Z,4.92
2019-03-24T04:45:00.949Z,4.95
2019-03-24T04:46:00.923Z,4.99
2019-03-24T04:47:00.842Z,4.90
2019-03-24T04:48:00.791Z,4.90
2019-03-24T04:49:00.729Z,4.88
2019-03-24T04:50:00.672Z,4.86
2019-03-24T04:51:00.637Z,4.80
2019-03-24T04:52:00.557Z,4.85
2019-03-24T04:53:00.502Z,4.89
2019-03-24T04:54:00.442Z,4.85
2019-03-24T04:55:00.391Z,4.83
2019-03-24T04:56:00.355Z,4.83
2019-03-24T04:57:00.301Z,4.83
2019-03-24T04:58:00.230Z,4.85
2019-03-24T04:59:00.170Z,4.86
2019-03-24T05:00:00.172Z,4.86
2019-03-24T05:01:00.078Z,4.80
2019-03-24T05:01:59.995Z,4.85
2019-03-24T05:02:59.952Z,4.86
2019-03-24T05:03:59.885Z,4.86
2019-03-24T05:04:59.829Z,4.79
2019-03-24T05:05:59.797Z,4.92
2019-03-24T05:06:59.719Z,4.89
2019-03-24T05:07:59.654Z,4.92
2019-03-24T05:08:59.603Z,4.85
2019-03-24T05:09:59.549Z,4.83
2019-03-24T05:10:59.512Z,4.89
2019-03-24T05:11:59.441Z,4.89
2019-03-24T05:12:59.384Z,4.93
2019-03-24T05:13:59.322Z,4.89
2019-03-24T05:14:59.268Z,4.89
2019-03-24T05:15:59.235Z,4.90
2019-03-24T05:16:59.156Z,4.96
2019-03-24T05:17:59.102Z,4.96
2019-03-24T05:18:59.041Z,4.90
2019-03-24T05:19:58.989Z,4.88
2019-03-24T05:20:58.995Z,4.86
2019-03-24T05:21:58.877Z,4.86
2019-03-24T05:22:58.817Z,4.79
2019-03-24T05:23:58.763Z,4.85
2019-03-24T05:24:58.709Z,4.80
2019-03-24T05:25:58.675Z,4.83
2019-03-24T05:26:58.635Z,4.85
2019-03-24T05:27:58.535Z,4.88
2019-03-24T05:28:58.483Z,4.80
2019-03-24T05:29:58.428Z,4.80
2019-03-24T05:30:58.410Z,4.89
2019-03-24T05:31:58.317Z,4.88
2019-03-24T05:32:58.257Z,4.88
2019-03-24T05:33:58.202Z,4.89
2019-03-24T05:34:58.143Z,4.85
2019-03-24T05:35:58.115Z,4.89
2019-03-24T05:36:58.037Z,4.90
2019-03-24T05:37:57.981Z,4.85
2019-03-24T05:38:57.921Z,4.83
2019-03-24T05:39:57.861Z,4.79
2019-03-24T05:40:57.836Z,4.74
2019-03-24T05:41:57.754Z,4.77
2019-03-24T05:42:57.699Z,4.77
2019-03-24T05:43:57.640Z,4.86
2019-03-24T05:44:57.581Z,4.70
2019-03-24T05:45:57.554Z,4.73
2019-03-24T05:46:57.476Z,4.83
2019-03-24T05:47:57.419Z,4.76
2019-03-24T05:48:57.363Z,4.64
2019-03-24T05:49:57.309Z,4.59
2019-03-24T05:50:57.293Z,4.64
2019-03-24T05:51:57.194Z,4.59
2019-03-24T05:52:57.137Z,4.64
2019-03-24T05:53:57.084Z,4.69
2019-03-24T05:54:57.020Z,4.64
2019-03-24T05:55:56.968Z,4.66
2019-03-24T05:56:56.939Z,4.64
2019-03-24T05:57:56.857Z,4.61
2019-03-24T05:58:56.797Z,4.71
2019-03-24T05:59:56.746Z,4.59
2019-03-24T06:00:56.691Z,4.58
2019-03-24T06:01:56.659Z,4.58
2019-03-24T06:02:57.368Z,4.71
2019-03-24T06:03:56.520Z,4.69
2019-03-24T06:04:56.465Z,4.69
2019-03-24T06:05:56.412Z,4.71
2019-03-24T06:06:56.374Z,4.69
2019-03-24T06:07:56.291Z,4.76
2019-03-24T06:08:56.247Z,4.74
2019-03-24T06:09:56.180Z,4.80
2019-03-24T06:10:56.129Z,4.76
2019-03-24T06:11:56.101Z,4.77
2019-03-24T06:12:56.018Z,4.74
2019-03-24T06:13:55.963Z,4.83
2019-03-24T06:14:55.899Z,4.85
2019-03-24T06:15:55.848Z,4.80
2019-03-24T06:16:55.817Z,4.86
2019-03-24T06:17:55.737Z,4.88
2019-03-24T06:18:55.687Z,4.79
2019-03-24T06:19:55.631Z,4.92
2019-03-24T06:20:55.571Z,4.92
2019-03-24T06:21:55.542Z,4.88
2019-03-24T06:22:55.461Z,4.90
2019-03-24T06:23:55.406Z,4.90
2019-03-24T06:24:55.344Z,4.98
2019-03-24T06:25:55.303Z,4.95
2019-03-24T06:26:55.263Z,4.90
2019-03-24T06:27:55.177Z,4.90
2019-03-24T06:28:55.123Z,5.01
2019-03-24T06:29:55.068Z,4.95
2019-03-24T06:30:55.016Z,5.08
2019-03-24T06:31:54.981Z,5.07
2019-03-24T06:32:54.902Z,5.22
2019-03-24T06:33:54.847Z,5.21
2019-03-24T06:34:54.789Z,5.25
2019-03-24T06:35:54.733Z,5.24
2019-03-24T06:36:54.701Z,5.29
2019-03-24T06:37:54.621Z,5.33
2019-03-24T06:38:54.566Z,5.47
2019-03-24T06:39:54.511Z,5.46
2019-03-24T06:40:54.458Z,5.59
2019-03-24T06:41:54.425Z,5.59
2019-03-24T06:42:54.347Z,5.57
2019-03-24T06:43:54.292Z,5.61
2019-03-24T06:44:54.234Z,5.58
2019-03-24T06:45:54.178Z,5.46
2019-03-24T06:46:54.146Z,5.46
2019-03-24T06:47:58.041Z,5.36
2019-03-24T06:48:54.012Z,5.39
2019-03-24T06:49:53.956Z,5.47
2019-03-24T06:50:53.918Z,5.42
2019-03-24T06:51:53.870Z,5.57
2019-03-24T06:52:53.791Z,5.54
2019-03-24T06:53:53.736Z,5.64
2019-03-24T06:54:53.680Z,5.69
2019-03-24T06:55:53.624Z,5.68
2019-03-24T06:56:53.593Z,5.69
2019-03-24T06:57:53.514Z,5.71
2019-03-24T06:58:53.460Z,5.65
2019-03-24T06:59:53.403Z,5.71
2019-03-24T07:00:53.349Z,5.68
2019-03-24T07:01:53.320Z,5.67
2019-03-24T07:02:53.237Z,5.68
2019-03-24T07:03:53.181Z,5.74
2019-03-24T07:04:53.126Z,5.71
2019-03-24T07:05:53.078Z,5.83
2019-03-24T07:06:53.045Z,5.90
2019-03-24T07:07:52.964Z,6.05
2019-03-24T07:08:52.908Z,6.05
2019-03-24T07:09:52.853Z,6.13
2019-03-24T07:10:52.794Z,6.18
2019-03-24T07:11:52.768Z,6.29
2019-03-24T07:12:52.686Z,6.37
2019-03-24T07:13:52.632Z,6.48
2019-03-24T07:14:52.572Z,6.56
2019-03-24T07:15:52.520Z,6.65
2019-03-24T07:16:52.496Z,6.73
2019-03-24T07:17:52.411Z,6.63
2019-03-24T07:18:52.352Z,6.78
2019-03-24T07:19:52.303Z,6.71
2019-03-24T07:20:52.249Z,6.77
2019-03-24T07:21:52.216Z,6.77
2019-03-24T07:22:52.137Z,6.80
2019-03-24T07:23:52.082Z,6.83
2019-03-24T07:24:52.031Z,6.96
2019-03-24T07:25:51.975Z,6.91
2019-03-24T07:26:51.951Z,6.89
2019-03-24T07:27:51.864Z,6.95
2019-03-24T07:28:51.826Z,7.02
2019-03-24T07:29:51.757Z,7.07
2019-03-24T07:30:51.698Z,7.18
2019-03-24T07:31:51.673Z,7.26
2019-03-24T07:32:51.595Z,7.29
2019-03-24T07:33:51.540Z,7.20
2019-03-24T07:34:51.490Z,7.25
2019-03-24T07:35:51.429Z,7.21
2019-03-24T07:36:51.402Z,7.23
2019-03-24T07:37:51.322Z,7.20
2019-03-24T07:38:51.274Z,7.10
2019-03-24T07:39:51.215Z,7.08
2019-03-24T07:40:51.160Z,7.25
2019-03-24T07:41:51.136Z,7.26
2019-03-24T07:42:51.052Z,7.53
2019-03-24T07:43:51.001Z,7.57
2019-03-24T07:44:50.946Z,7.42
2019-03-24T07:45:50.893Z,7.39
2019-03-24T07:46:50.859Z,7.28
2019-03-24T07:47:50.784Z,7.32
2019-03-24T07:48:50.728Z,7.28
2019-03-24T07:49:50.682Z,7.31
2019-03-24T07:50:50.623Z,7.29
2019-03-24T07:51:50.592Z,7.20
2019-03-24T07:52:50.515Z,7.14
2019-03-24T07:53:50.460Z,7.18
2019-03-24T07:54:50.407Z,7.17
2019-03-24T07:55:50.350Z,7.17
2019-03-24T07:56:50.323Z,7.18
2019-03-24T07:57:50.284Z,7.17
2019-03-24T07:58:50.195Z,7.18
2019-03-24T07:59:50.139Z,7.21
2019-03-24T08:00:50.087Z,7.26
2019-03-24T08:01:50.057Z,7.29
2019-03-24T08:02:51.251Z,7.17
2019-03-24T08:03:49.925Z,7.20
2019-03-24T08:04:49.867Z,7.18
2019-03-24T08:05:49.815Z,7.21
2019-03-24T08:06:49.789Z,7.36
2019-03-24T08:07:49.703Z,7.42
2019-03-24T08:08:49.650Z,7.59
2019-03-24T08:09:49.593Z,7.69
2019-03-24T08:10:49.547Z,7.72
2019-03-24T08:11:49.516Z,7.73
2019-03-24T08:12:49.510Z,7.69
2019-03-24T08:13:54.045Z,7.69
2019-03-24T08:14:49.331Z,7.62
2019-03-24T08:15:49.275Z,7.66
2019-03-24T08:16:49.245Z,7.75
2019-03-24T08:17:49.167Z,7.66
2019-03-24T08:18:49.112Z,7.69
2019-03-24T08:19:49.060Z,7.66
2019-03-24T08:20:49.008Z,7.50
2019-03-24T08:21:48.976Z,7.44
2019-03-24T08:22:48.906Z,7.50
2019-03-24T08:23:48.842Z,7.54
2019-03-24T08:24:48.795Z,7.59
2019-03-24T08:25:48.739Z,7.73
2019-03-24T08:26:48.707Z,7.83
2019-03-24T08:27:48.632Z,7.76
2019-03-24T08:28:48.581Z,7.87
2019-03-24T08:29:48.529Z,7.90
2019-03-24T08:30:48.478Z,7.94
2019-03-24T08:31:48.442Z,7.98
2019-03-24T08:32:48.366Z,7.98
2019-03-24T08:33:48.313Z,8.02
2019-03-24T08:34:48.510Z,7.90
2019-03-24T08:35:48.220Z,7.79
2019-03-24T08:36:48.174Z,7.72
2019-03-24T08:37:48.098Z,7.64
2019-03-24T08:38:48.041Z,7.38
2019-03-24T08:39:47.996Z,7.41
2019-03-24T08:40:47.939Z,7.29
2019-03-24T08:41:47.911Z,7.44
2019-03-24T08:42:47.829Z,7.50
2019-03-24T08:43:47.779Z,7.47
2019-03-24T08:44:47.723Z,7.42
2019-03-24T08:45:47.672Z,7.59
2019-03-24T08:46:47.641Z,7.59
2019-03-24T08:47:47.599Z,7.69
2019-03-24T08:48:47.515Z,7.66
2019-03-24T08:49:47.457Z,7.72
2019-03-24T08:50:47.398Z,7.76
2019-03-24T08:51:47.369Z,7.73
2019-03-24T08:52:47.292Z,7.91
2019-03-24T08:53:47.240Z,7.88
2019-03-24T08:54:47.180Z,7.94
2019-03-24T08:55:47.130Z,8.05
2019-03-24T08:56:47.104Z,8.11
2019-03-24T08:57:47.025Z,8.18
2019-03-24T08:58:46.970Z,8.26
2019-03-24T08:59:46.916Z,8.36
2019-03-24T09:00:46.860Z,8.38
2019-03-24T09:01:46.834Z,8.39
2019-03-24T09:02:46.755Z,8.42
2019-03-24T09:03:46.702Z,8.29
2019-03-24T09:04:46.648Z,8.39
2019-03-24T09:05:46.595Z,8.52
2019-03-24T09:06:46.566Z,8.42
2019-03-24T09:07:46.489Z,8.49
2019-03-24T09:08:48.867Z,8.62
2019-03-24T09:09:46.383Z,8.66
2019-03-24T09:10:46.332Z,8.72
2019-03-24T09:11:46.279Z,8.85
2019-03-24T09:12:46.249Z,8.63
2019-03-24T09:13:46.168Z,8.63
2019-03-24T09:14:46.114Z,8.66
2019-03-24T09:15:46.062Z,8.72
2019-03-24T09:16:46.015Z,8.77
2019-03-24T09:17:46.014Z,8.90
2019-03-24T09:18:52.671Z,8.99
2019-03-24T09:19:45.849Z,8.93
2019-03-24T09:20:45.797Z,8.88
2019-03-24T09:21:45.745Z,8.78
2019-03-24T09:22:45.722Z,8.81
2019-03-24T09:23:45.646Z,8.90
2019-03-24T09:24:45.607Z,8.98
2019-03-24T09:25:45.536Z,9.03
2019-03-24T09:26:45.481Z,9.03
2019-03-24T09:27:45.454Z,9.02
2019-03-24T09:28:45.377Z,9.08
2019-03-24T09:29:45.333Z,9.05
2019-03-24T09:30:45.270Z,9.15
2019-03-24T09:31:45.219Z,9.15
2019-03-24T09:32:45.190Z,9.16
2019-03-24T09:33:45.109Z,9.29
2019-03-24T09:34:45.053Z,9.43
2019-03-24T09:35:45.002Z,9.46
2019-03-24T09:36:44.954Z,9.51
2019-03-24T09:37:44.972Z,9.54
2019-03-24T09:38:44.852Z,9.62
2019-03-24T09:39:44.804Z,9.69
2019-03-24T09:40:44.745Z,9.80
2019-03-24T09:41:44.694Z,9.86
2019-03-24T09:42:44.666Z,9.91
2019-03-24T09:43:44.587Z,9.91
2019-03-24T09:44:44.532Z,9.93
2019-03-24T09:45:44.484Z,9.91
2019-03-24T09:46:44.428Z,9.91
2019-03-24T09:47:44.402Z,9.90
2019-03-24T09:48:44.330Z,9.95
2019-03-24T09:49:44.277Z,9.93
2019-03-24T09:50:44.232Z,10.00
2019-03-24T09:51:44.177Z,10.00
2019-03-24T09:52:44.143Z,10.10
2019-03-24T09:53:44.064Z,10.02
2019-03-24T09:54:44.010Z,10.09
2019-03-24T09:55:43.962Z,10.15
2019-03-24T09:56:43.911Z,10.18
2019-03-24T09:57:43.883Z,10.22
2019-03-24T09:58:43.809Z,10.26
2019-03-24T09:59:43.767Z,10.23
2019-03-24T10:00:43.702Z,10.31
2019-03-24T10:01:43.650Z,10.33
2019-03-24T10:02:43.640Z,10.35
2019-03-24T10:03:43.549Z,10.38
2019-03-24T10:04:43.499Z,10.33
2019-03-24T10:05:43.448Z,10.31
2019-03-24T10:06:43.395Z,10.35
2019-03-24T10:07:43.413Z,10.33
2019-03-24T10:08:47.346Z,10.20
2019-03-24T10:09:43.238Z,10.26
2019-03-24T10:10:43.183Z,10.30
2019-03-24T10:11:43.139Z,10.33
2019-03-24T10:12:43.079Z,10.54
2019-03-24T10:13:43.049Z,10.53
2019-03-24T10:14:42.986Z,10.43
2019-03-24T10:15:43.021Z,10.37
2019-03-24T10:16:42.898Z,10.40
2019-03-24T10:17:42.830Z,10.37
2019-03-24T10:18:42.805Z,10.41
2019-03-24T10:19:42.720Z,10.46
2019-03-24T10:20:42.666Z,10.45
2019-03-24T10:21:42.618Z,10.38
2019-03-24T10:22:42.566Z,10.35
2019-03-24T10:23:42.543Z,10.35
2019-03-24T10:24:42.464Z,10.45
2019-03-24T10:25:42.408Z,10.60
2019-03-24T10:26:42.369Z,10.46
2019-03-24T10:27:42.317Z,10.40
2019-03-24T10:28:42.282Z,10.37
2019-03-24T10:29:42.206Z,10.59
2019-03-24T10:30:42.230Z,10.72
2019-03-24T10:31:42.684Z,10.72
2019-03-24T10:32:42.053Z,10.75
2019-03-24T10:33:42.022Z,10.59
2019-03-24T10:34:41.942Z,10.45
2019-03-24T10:35:41.895Z,10.45
2019-03-24T10:36:41.843Z,10.38
2019-03-24T10:37:41.791Z,10.38
2019-03-24T10:38:41.764Z,10.46
2019-03-24T10:39:41.682Z,10.46
2019-03-24T10:40:41.638Z,10.54
2019-03-24T10:41:41.586Z,10.43
2019-03-24T10:42:41.536Z,10.45
2019-03-24T10:43:41.507Z,10.37
2019-03-24T10:44:41.430Z,10.34
2019-03-24T10:45:41.380Z,10.30
2019-03-24T10:46:41.329Z,10.34
2019-03-24T10:47:41.278Z,10.27
2019-03-24T10:48:41.242Z,10.26
2019-03-24T10:49:41.171Z,10.33
2019-03-24T10:50:41.115Z,10.43
2019-03-24T10:51:41.064Z,10.34
2019-03-24T10:52:41.009Z,10.31
2019-03-24T10:53:40.981Z,10.30
2019-03-24T10:54:40.914Z,10.33
2019-03-24T10:55:40.864Z,10.40
2019-03-24T10:56:40.803Z,10.37
2019-03-24T10:57:40.753Z,10.53
2019-03-24T10:58:40.724Z,10.56
2019-03-24T10:59:40.649Z,10.72
2019-03-24T11:00:40.598Z,10.57
2019-03-24T11:01:40.550Z,10.60
2019-03-24T11:02:40.490Z,10.57
2019-03-24T11:03:40.467Z,10.65
2019-03-24T11:04:40.388Z,10.70
2019-03-24T11:05:40.341Z,10.65
2019-03-24T11:06:40.289Z,10.59
2019-03-24T11:07:40.279Z,10.54
2019-03-24T11:08:40.206Z,10.71
2019-03-24T11:09:40.131Z,10.67
2019-03-24T11:10:40.076Z,10.78
2019-03-24T11:11:40.025Z,10.87
2019-03-24T11:12:39.973Z,10.93
2019-03-24T11:13:39.945Z,11.05
2019-03-24T11:14:39.871Z,11.08
2019-03-24T11:15:39.814Z,11.11
2019-03-24T11:16:39.767Z,11.11
2019-03-24T11:17:39.717Z,10.95
2019-03-24T11:18:39.689Z,10.75
2019-03-24T11:19:39.608Z,10.71
2019-03-24T11:20:39.563Z,10.65
2019-03-24T11:21:39.516Z,10.64
2019-03-24T11:22:39.465Z,10.65
2019-03-24T11:23:39.430Z,10.70
2019-03-24T11:24:39.364Z,10.85
2019-03-24T11:25:39.305Z,10.87
2019-03-24T11:26:39.254Z,10.89
2019-03-24T11:27:39.224Z,10.96
2019-03-24T11:28:39.179Z,10.97
2019-03-24T11:29:39.115Z,11.07
2019-03-24T11:30:39.068Z,11.14
2019-03-24T11:31:39.024Z,11.23
2019-03-24T11:32:38.950Z,11.26
2019-03-24T11:33:38.899Z,11.40
2019-03-24T11:34:38.872Z,11.44
2019-03-24T11:35:38.797Z,11.50
2019-03-24T11:36:38.744Z,11.47
2019-03-24T11:37:38.797Z,11.54
2019-03-24T11:38:38.642Z,11.53
2019-03-24T11:39:38.612Z,11.47
2019-03-24T11:40:38.546Z,11.48
2019-03-24T11:41:38.487Z,11.58
2019-03-24T11:42:38.436Z,11.65
2019-03-24T11:43:38.390Z,11.68
2019-03-24T11:44:38.360Z,11.80
2019-03-24T11:45:38.293Z,11.96
2019-03-24T11:46:38.234Z,12.06
2019-03-24T11:47:38.184Z,12.10
2019-03-24T11:48:38.142Z,12.09
2019-03-24T11:49:45.681Z,11.95
2019-03-24T11:50:38.038Z,12.02
2019-03-24T11:51:37.981Z,11.68
2019-03-24T11:52:37.926Z,11.46
2019-03-24T11:53:37.878Z,11.37
2019-03-24T11:54:37.843Z,11.25
2019-03-24T11:55:37.783Z,11.15
2019-03-24T11:56:37.728Z,11.17
2019-03-24T11:57:37.681Z,11.17
2019-03-24T11:58:37.640Z,11.12
2019-03-24T11:59:37.605Z,11.22
2019-03-24T12:00:37.526Z,11.26
2019-03-24T12:01:38.387Z,11.20
2019-03-24T12:02:37.424Z,11.38
2019-03-24T12:03:37.373Z,11.48
2019-03-24T12:04:37.341Z,11.65
2019-03-24T12:05:37.269Z,11.56
2019-03-24T12:06:37.215Z,11.71
2019-03-24T12:07:37.169Z,11.74
2019-03-24T12:08:38.845Z,11.74
2019-03-24T12:09:37.092Z,11.74
2019-03-24T12:10:37.019Z,11.79
2019-03-24T12:11:36.970Z,11.81
2019-03-24T12:12:36.914Z,11.74
2019-03-24T12:13:36.862Z,11.59
2019-03-24T12:14:36.840Z,11.50
2019-03-24T12:15:36.759Z,11.61
2019-03-24T12:16:36.720Z,11.61
2019-03-24T12:17:36.658Z,11.59
2019-03-24T12:18:36.605Z,11.69
2019-03-24T12:19:36.618Z,11.50
2019-03-24T12:20:36.506Z,11.51
2019-03-24T12:21:36.458Z,11.48
2019-03-24T12:22:36.398Z,11.61
2019-03-24T12:23:36.351Z,11.41
2019-03-24T12:24:36.328Z,11.46
2019-03-24T12:25:36.250Z,11.58
2019-03-24T12:26:36.198Z,11.66
2019-03-24T12:27:36.146Z,11.68
2019-03-24T12:28:36.097Z,11.74
2019-03-24T12:29:36.068Z,12.00
2019-03-24T12:30:35.997Z,12.17
2019-03-24T12:31:35.937Z,12.25
2019-03-24T12:32:35.892Z,12.28
2019-03-24T12:33:35.843Z,12.36
2019-03-24T12:34:35.811Z,12.18
2019-03-24T12:35:35.739Z,12.22
2019-03-24T12:36:35.691Z,12.17
2019-03-24T12:37:35.637Z,12.18
2019-03-24T12:38:35.587Z,12.14
2019-03-24T12:39:35.580Z,11.96
2019-03-24T12:40:35.484Z,11.86
2019-03-24T12:41:35.435Z,11.77
2019-03-24T12:42:35.397Z,11.71
2019-03-24T12:43:35.337Z,11.62
2019-03-24T12:44:35.301Z,11.61
2019-03-24T12:45:35.231Z,11.66
2019-03-24T12:46:35.178Z,11.69
2019-03-24T12:47:35.127Z,11.72
2019-03-24T12:48:35.080Z,11.69
2019-03-24T12:49:35.048Z,11.71
2019-03-24T12:50:34.980Z,11.71
2019-03-24T12:51:34.929Z,11.74
2019-03-24T12:52:34.878Z,11.74
2019-03-24T12:53:34.823Z,11.69
2019-03-24T12:54:34.795Z,11.62
2019-03-24T12:55:34.719Z,11.47
2019-03-24T12:56:34.672Z,11.47
2019-03-24T12:57:34.621Z,11.47
2019-03-24T12:58:34.569Z,11.43
2019-03-24T12:59:34.558Z,11.37
2019-03-24T13:00:34.472Z,11.44
2019-03-24T13:01:34.415Z,11.46
2019-03-24T13:02:34.369Z,11.51
2019-03-24T13:03:35.880Z,11.58
2019-03-24T13:04:34.261Z,11.62
2019-03-24T13:05:34.256Z,11.59
2019-03-24T13:06:34.159Z,11.72
2019-03-24T13:07:34.109Z,11.69
2019-03-24T13:08:34.054Z,11.74
2019-03-24T13:09:34.014Z,11.65
2019-03-24T13:10:33.977Z,11.59